Terminal Aerodrome Forecast
Issued by NWS

Home | Current Version | Previous Version | Text Only | Print | Product List | Glossary On
Versions: 1 2 3 4 5 6 7 8 9 10 11 12 13 14 15
000
FTUS46 KLOX 251404 AAB
TAFBUR
TAF AMD
KBUR 251404Z 2514/2612 VRB03KT P6SM SCT120
     FM251600 13007KT P6SM VCSH BKN020 OVC040
     FM251800 16008KT P6SM BKN020 BKN060
     FM252100 20010KT P6SM SCT050
     FM260400 VRB03KT P6SM SCT050
     FM260900 VRB03KT P6SM BKN060=

USA.gov is the U.S. government's official web portal to all federal, state and local government web resources and services.